createdAt,value
2022-08-03T00:00:30.393Z,21.85
2022-08-03T00:02:57.276Z,21.57
2022-08-03T00:05:24.236Z,22.03
2022-08-03T00:07:51.063Z,21.97
2022-08-03T00:10:19.854Z,21.76
2022-08-03T00:12:46.786Z,21.64
2022-08-03T00:15:16.663Z,21.49
2022-08-03T00:17:53.626Z,21.59
2022-08-03T00:20:24.386Z,21.69
2022-08-03T00:22:52.475Z,21.49
2022-08-03T00:25:19.606Z,21.87
2022-08-03T00:27:48.397Z,21.75
2022-08-03T00:30:17.214Z,21.62
2022-08-03T00:32:45.275Z,21.44
2022-08-03T00:35:27.376Z,21.10
2022-08-03T00:37:59.885Z,21.28
2022-08-03T00:40:27.133Z,21.30
2022-08-03T00:42:56.528Z,21.32
2022-08-03T00:45:28.884Z,21.20
2022-08-03T00:47:56.286Z,21.11
2022-08-03T00:50:24.869Z,21.13
2022-08-03T00:52:54.020Z,21.05
2022-08-03T00:55:21.100Z,21.10
2022-08-03T00:57:48.586Z,21.10
2022-08-03T01:00:18.786Z,21.32
2022-08-03T01:02:46.400Z,21.26
2022-08-03T01:05:13.948Z,21.35
2022-08-03T01:07:40.715Z,21.04
2022-08-03T01:10:41.886Z,21.04
2022-08-03T01:14:03.800Z,21.13
2022-08-03T01:16:25.811Z,21.06
2022-08-03T01:19:25.562Z,21.02
2022-08-03T01:21:52.321Z,21.08
2022-08-03T01:24:32.135Z,20.88
2022-08-03T01:26:58.889Z,20.90
2022-08-03T01:30:07.930Z,21.05
2022-08-03T01:32:52.527Z,21.19
2022-08-03T01:35:47.065Z,21.29
2022-08-03T01:38:22.301Z,21.17
2022-08-03T01:40:52.270Z,21.36
2022-08-03T01:43:55.331Z,21.28
2022-08-03T01:46:11.565Z,21.25
2022-08-03T01:48:40.128Z,20.96
2022-08-03T01:51:09.530Z,20.58
2022-08-03T01:53:42.803Z,20.78
2022-08-03T01:56:10.608Z,20.99
2022-08-03T01:58:39.370Z,20.68
2022-08-03T02:01:06.953Z,20.53
2022-08-03T02:03:37.258Z,20.69
2022-08-03T02:07:01.755Z,20.92
2022-08-03T02:08:55.430Z,20.90
2022-08-03T02:11:22.651Z,20.60
2022-08-03T02:13:51.135Z,20.77
2022-08-03T02:16:19.084Z,20.50
2022-08-03T02:18:48.310Z,20.81
2022-08-03T02:21:48.246Z,20.84
2022-08-03T02:24:04.489Z,20.72
2022-08-03T02:26:32.088Z,20.96
2022-08-03T02:29:05.727Z,21.09
2022-08-03T02:31:37.025Z,21.04
2022-08-03T02:34:10.252Z,21.06
2022-08-03T02:36:39.697Z,20.83
2022-08-03T02:39:09.973Z,21.04
2022-08-03T02:41:50.247Z,20.98
2022-08-03T02:44:24.289Z,20.93
2022-08-03T02:46:55.970Z,20.61
2022-08-03T02:49:42.708Z,20.46
2022-08-03T02:52:15.764Z,20.40
2022-08-03T02:54:44.362Z,20.26
2022-08-03T02:57:12.494Z,20.43
2022-08-03T02:59:41.050Z,20.44
2022-08-03T03:02:09.468Z,20.35
2022-08-03T03:04:37.083Z,20.28
2022-08-03T03:07:04.522Z,20.38
2022-08-03T03:09:40.368Z,20.40
2022-08-03T03:12:10.437Z,20.59
2022-08-03T03:14:38.129Z,20.56
2022-08-03T03:17:07.175Z,20.44
2022-08-03T03:19:35.135Z,20.69
2022-08-03T03:22:03.782Z,20.39
2022-08-03T03:24:31.050Z,20.61
2022-08-03T03:26:58.860Z,20.45
2022-08-03T03:29:26.177Z,20.44
2022-08-03T03:31:54.189Z,20.37
2022-08-03T03:34:21.251Z,20.49
2022-08-03T03:36:48.271Z,20.78
2022-08-03T03:39:15.475Z,20.58
2022-08-03T03:41:43.789Z,20.44
2022-08-03T03:44:10.683Z,20.30
2022-08-03T03:46:38.897Z,20.28
2022-08-03T03:49:07.486Z,20.29
2022-08-03T03:51:34.838Z,20.08
2022-08-03T03:54:05.836Z,20.23
2022-08-03T03:56:32.895Z,20.09
2022-08-03T03:59:01.116Z,20.38
2022-08-03T04:01:28.709Z,20.11
2022-08-03T04:03:55.622Z,19.82
2022-08-03T04:06:40.897Z,20.12
2022-08-03T04:09:29.314Z,19.90
2022-08-03T04:12:01.184Z,19.99
2022-08-03T04:14:35.196Z,20.03
2022-08-03T04:17:04.172Z,20.11
2022-08-03T04:19:35.892Z,20.24
2022-08-03T04:22:09.859Z,20.14
2022-08-03T04:24:53.682Z,20.26
2022-08-03T04:27:27.424Z,20.24
2022-08-03T04:29:57.020Z,20.12
2022-08-03T04:32:28.667Z,20.32
2022-08-03T04:34:56.083Z,20.67
2022-08-03T04:37:47.899Z,20.64
2022-08-03T04:40:25.377Z,20.65
2022-08-03T04:42:58.631Z,20.47
2022-08-03T04:45:27.245Z,20.54
2022-08-03T04:47:55.095Z,20.27
2022-08-03T04:50:22.856Z,20.58
2022-08-03T04:53:05.242Z,20.52
2022-08-03T04:55:33.550Z,20.55
2022-08-03T04:58:02.352Z,20.84
2022-08-03T05:00:30.122Z,20.43
2022-08-03T05:02:57.011Z,20.53
2022-08-03T05:05:24.039Z,20.88
2022-08-03T05:07:51.128Z,20.73
2022-08-03T05:10:18.366Z,20.90
2022-08-03T05:12:47.653Z,21.02
2022-08-03T05:15:14.870Z,21.07
2022-08-03T05:17:42.020Z,21.35
2022-08-03T05:20:10.054Z,21.17
2022-08-03T05:22:36.925Z,21.21
2022-08-03T05:25:03.972Z,21.38
2022-08-03T05:27:31.021Z,21.42
2022-08-03T05:30:30.620Z,21.38
2022-08-03T05:32:44.846Z,21.87
2022-08-03T05:35:57.302Z,21.46
2022-08-03T05:37:58.489Z,21.64
2022-08-03T05:40:25.328Z,21.55
2022-08-03T05:42:53.807Z,21.78
2022-08-03T05:45:23.202Z,21.92
2022-08-03T05:47:53.750Z,21.64
2022-08-03T05:50:21.239Z,22.29
2022-08-03T05:52:48.140Z,22.24
2022-08-03T05:55:15.415Z,22.18
2022-08-03T05:57:42.542Z,22.03
2022-08-03T06:00:12.222Z,22.29
2022-08-03T06:02:39.958Z,22.30
2022-08-03T06:05:07.346Z,22.51
2022-08-03T06:07:34.547Z,22.94
2022-08-03T06:10:37.577Z,22.52
2022-08-03T06:12:51.325Z,22.67
2022-08-03T06:15:20.495Z,22.69
2022-08-03T06:17:52.224Z,22.51
2022-08-03T06:20:21.200Z,22.69
2022-08-03T06:22:51.404Z,22.79
2022-08-03T06:25:27.432Z,22.84
2022-08-03T06:27:54.255Z,22.99
2022-08-03T06:30:21.596Z,23.23
2022-08-03T06:32:51.703Z,23.24
2022-08-03T06:35:20.171Z,23.16
2022-08-03T06:37:51.254Z,23.23
2022-08-03T06:40:24.308Z,23.39
2022-08-03T06:42:51.637Z,23.44
2022-08-03T06:45:18.663Z,23.56
2022-08-03T06:47:45.701Z,23.57
2022-08-03T06:50:16.245Z,23.43
2022-08-03T06:52:45.369Z,23.57
2022-08-03T06:55:12.369Z,23.64
2022-08-03T06:57:39.173Z,23.79
2022-08-03T07:00:11.917Z,23.76
2022-08-03T07:02:40.017Z,23.86
2022-08-03T07:05:08.602Z,24.24
2022-08-03T07:07:35.864Z,24.52
2022-08-03T07:10:03.457Z,24.49
2022-08-03T07:12:31.086Z,24.36
2022-08-03T07:15:01.856Z,24.56
2022-08-03T07:17:31.060Z,24.89
2022-08-03T07:20:01.590Z,24.76
2022-08-03T07:22:29.101Z,24.65
2022-08-03T07:24:56.632Z,24.73
2022-08-03T07:27:23.633Z,24.83
2022-08-03T07:29:50.735Z,24.92
2022-08-03T07:32:17.876Z,24.76
2022-08-03T07:34:45.082Z,24.40
2022-08-03T07:37:11.976Z,24.65
2022-08-03T07:39:38.827Z,24.69
2022-08-03T07:42:05.726Z,24.93
2022-08-03T07:44:32.609Z,24.62
2022-08-03T07:47:00.030Z,24.96
2022-08-03T07:49:30.532Z,25.10
2022-08-03T07:52:16.277Z,25.05
2022-08-03T07:54:43.746Z,24.96
2022-08-03T07:57:10.584Z,25.38
2022-08-03T07:59:56.747Z,25.08
2022-08-03T08:02:24.152Z,25.35
2022-08-03T08:04:51.224Z,25.70
2022-08-03T08:07:18.572Z,25.93
2022-08-03T08:09:47.804Z,25.97
2022-08-03T08:12:15.148Z,26.05
2022-08-03T08:14:45.807Z,26.24
2022-08-03T08:17:13.392Z,26.25
2022-08-03T08:19:41.475Z,26.45
2022-08-03T08:22:23.495Z,25.91
2022-08-03T08:25:01.226Z,26.36
2022-08-03T08:28:31.035Z,26.38
2022-08-03T08:30:22.388Z,26.37
2022-08-03T08:32:50.254Z,26.17
2022-08-03T08:35:18.163Z,26.35
2022-08-03T08:37:51.082Z,26.44
2022-08-03T08:40:21.211Z,26.76
2022-08-03T08:42:57.932Z,26.74
2022-08-03T08:45:25.921Z,26.34
2022-08-03T08:48:00.860Z,26.99
2022-08-03T08:50:30.075Z,26.88
2022-08-03T08:53:00.895Z,27.16
2022-08-03T08:55:27.874Z,27.05
2022-08-03T08:58:02.289Z,27.22
2022-08-03T09:00:30.863Z,27.48
2022-08-03T09:02:58.190Z,27.51
2022-08-03T09:05:54.670Z,27.69
2022-08-03T09:08:13.327Z,27.17
2022-08-03T09:10:40.321Z,27.28
2022-08-03T09:13:08.598Z,27.34
2022-08-03T09:15:35.699Z,27.82
2022-08-03T09:18:04.245Z,27.96
2022-08-03T09:20:34.214Z,27.48
2022-08-03T09:23:09.712Z,27.94
2022-08-03T09:25:59.966Z,27.95
2022-08-03T09:29:00.844Z,27.88
2022-08-03T09:31:33.407Z,27.58
2022-08-03T09:34:08.489Z,27.71
2022-08-03T09:36:38.354Z,27.69
2022-08-03T09:39:07.621Z,27.65
2022-08-03T09:41:34.566Z,27.76
2022-08-03T09:44:01.432Z,27.95
2022-08-03T09:46:31.826Z,28.05
2022-08-03T09:49:12.175Z,28.69
2022-08-03T09:52:31.737Z,28.48
2022-08-03T09:54:28.397Z,28.36
2022-08-03T09:56:56.070Z,28.26
2022-08-03T09:59:28.719Z,28.92
2022-08-03T10:01:57.602Z,28.87
2022-08-03T10:04:24.926Z,29.04
2022-08-03T10:07:09.246Z,29.18
2022-08-03T10:09:36.839Z,29.12
2022-08-03T10:12:12.607Z,29.16
2022-08-03T10:14:41.865Z,29.18
2022-08-03T10:17:09.865Z,29.13
2022-08-03T10:19:36.776Z,29.19
2022-08-03T10:22:08.258Z,29.27
2022-08-03T10:24:38.630Z,29.73
2022-08-03T10:27:11.473Z,29.89
2022-08-03T10:29:41.273Z,29.81
2022-08-03T10:32:15.119Z,29.58
2022-08-03T10:34:44.727Z,29.22
2022-08-03T10:37:15.375Z,29.27
2022-08-03T10:39:53.466Z,29.29
2022-08-03T10:42:26.293Z,29.82
2022-08-03T10:45:04.998Z,29.76
2022-08-03T10:47:32.302Z,29.68
2022-08-03T10:49:59.991Z,29.35
2022-08-03T10:52:35.102Z,30.09
2022-08-03T10:55:52.807Z,30.20
2022-08-03T10:58:38.057Z,30.09
2022-08-03T11:02:02.720Z,30.22
2022-08-03T11:04:30.480Z,30.26
2022-08-03T11:07:25.565Z,30.35
2022-08-03T11:09:56.549Z,30.40
2022-08-03T11:12:32.124Z,30.48
2022-08-03T11:15:05.626Z,30.56
2022-08-03T11:17:46.285Z,30.80
2022-08-03T11:20:47.311Z,30.80
2022-08-03T11:23:15.795Z,31.48
2022-08-03T11:26:11.793Z,31.12
2022-08-03T11:28:40.030Z,31.63
2022-08-03T11:31:46.747Z,31.08
2022-08-03T11:34:12.021Z,31.50
2022-08-03T11:37:16.763Z,31.98
2022-08-03T11:39:48.901Z,32.20
2022-08-03T11:42:24.744Z,32.42
2022-08-03T11:44:59.698Z,32.09
2022-08-03T11:47:29.121Z,31.84
2022-08-03T11:50:00.366Z,31.84
2022-08-03T11:52:33.834Z,31.28
2022-08-03T11:55:01.167Z,31.11
2022-08-03T11:59:10.816Z,31.46
2022-08-03T12:00:22.776Z,30.96
2022-08-03T12:03:05.550Z,31.24
2022-08-03T12:05:52.717Z,31.71
2022-08-03T12:08:32.333Z,31.55
2022-08-03T12:11:01.585Z,31.41
2022-08-03T12:14:45.265Z,31.54
2022-08-03T12:16:25.658Z,31.59
2022-08-03T12:19:10.789Z,31.87
2022-08-03T12:21:57.231Z,31.99
2022-08-03T12:24:24.503Z,31.80
2022-08-03T12:26:58.362Z,31.10
2022-08-03T12:29:27.679Z,31.12
2022-08-03T12:31:56.137Z,31.40
2022-08-03T12:34:23.363Z,31.81
2022-08-03T12:36:59.213Z,31.11
2022-08-03T12:39:30.913Z,31.05
2022-08-03T12:41:58.137Z,31.41
2022-08-03T12:44:34.605Z,31.16
2022-08-03T12:47:03.168Z,31.22
2022-08-03T12:49:46.963Z,31.11
2022-08-03T12:52:14.505Z,30.86
2022-08-03T12:54:41.911Z,30.79
2022-08-03T12:57:15.799Z,31.07
2022-08-03T12:59:52.653Z,31.23
2022-08-03T13:02:24.077Z,31.26
2022-08-03T13:04:53.953Z,30.97
2022-08-03T13:07:22.085Z,30.87
2022-08-03T13:09:50.689Z,31.02
2022-08-03T13:12:20.979Z,31.02
2022-08-03T13:14:50.838Z,31.53
2022-08-03T13:17:18.676Z,31.31
2022-08-03T13:19:46.463Z,31.17
2022-08-03T13:22:18.892Z,31.80
2022-08-03T13:24:47.529Z,31.78
2022-08-03T13:28:03.803Z,31.41
2022-08-03T13:30:01.725Z,31.57
2022-08-03T13:32:28.852Z,31.65
2022-08-03T13:34:55.754Z,31.76
2022-08-03T13:37:23.031Z,32.63
2022-08-03T13:39:59.692Z,31.76
2022-08-03T13:42:29.548Z,32.17
2022-08-03T13:44:56.486Z,31.80
2022-08-03T13:47:23.413Z,32.48
2022-08-03T13:49:59.886Z,32.26
2022-08-03T13:52:28.284Z,32.24
2022-08-03T13:54:55.353Z,32.15
2022-08-03T13:58:18.989Z,32.49
2022-08-03T14:00:09.956Z,32.36
2022-08-03T14:02:37.187Z,32.69
2022-08-03T14:05:04.340Z,32.24
2022-08-03T14:07:31.425Z,31.85
2022-08-03T14:09:58.381Z,32.43
2022-08-03T14:12:25.264Z,32.06
2022-08-03T14:14:52.197Z,31.96
2022-08-03T14:17:19.819Z,32.03
2022-08-03T14:19:53.343Z,31.66
2022-08-03T14:22:21.587Z,31.18
2022-08-03T14:24:49.152Z,31.36
2022-08-03T14:27:17.036Z,31.62
2022-08-03T14:29:43.927Z,31.66
2022-08-03T14:32:13.062Z,31.51
2022-08-03T14:34:40.900Z,31.85
2022-08-03T14:37:08.232Z,31.54
2022-08-03T14:42:22.039Z,32.23
2022-08-03T14:44:48.945Z,31.93
2022-08-03T14:47:15.801Z,32.23
2022-08-03T14:50:37.475Z,32.41
2022-08-03T14:52:31.027Z,32.04
2022-08-03T14:54:58.795Z,32.89
2022-08-03T14:57:26.338Z,32.93
2022-08-03T14:59:55.561Z,32.72
2022-08-03T15:02:25.042Z,32.18
2022-08-03T15:04:52.608Z,32.11
2022-08-03T15:07:20.691Z,31.57
2022-08-03T15:09:48.088Z,31.65
2022-08-03T15:12:15.055Z,31.17
2022-08-03T15:14:41.955Z,32.08
2022-08-03T15:17:08.871Z,32.36
2022-08-03T15:20:01.029Z,32.51
2022-08-03T15:22:25.227Z,32.36
2022-08-03T15:25:03.497Z,33.22
2022-08-03T15:27:30.919Z,32.60
2022-08-03T15:30:07.153Z,32.70
2022-08-03T15:32:37.045Z,32.47
2022-08-03T15:35:04.373Z,33.73
2022-08-03T15:37:31.240Z,32.97
2022-08-03T15:40:00.409Z,33.34
2022-08-03T15:42:29.649Z,34.64
2022-08-03T15:44:56.651Z,34.23
2022-08-03T15:47:23.633Z,33.95
2022-08-03T15:49:50.484Z,34.29
2022-08-03T15:52:17.470Z,34.40
2022-08-03T15:54:44.393Z,33.28
2022-08-03T15:57:11.268Z,33.85
2022-08-03T15:59:38.173Z,33.50
2022-08-03T16:02:05.017Z,34.10
2022-08-03T16:04:31.804Z,33.45
2022-08-03T16:06:58.594Z,33.87
2022-08-03T16:09:42.717Z,33.56
2022-08-03T16:12:14.521Z,33.91
2022-08-03T16:14:51.841Z,33.33
2022-08-03T16:17:20.194Z,32.86
2022-08-03T16:19:47.226Z,32.95
2022-08-03T16:22:14.499Z,33.03
2022-08-03T16:24:41.586Z,32.98
2022-08-03T16:27:37.189Z,33.42
2022-08-03T16:29:55.533Z,33.62
2022-08-03T16:32:22.405Z,34.05
2022-08-03T16:34:49.250Z,33.96
2022-08-03T16:37:37.493Z,34.06
2022-08-03T16:40:05.414Z,33.49
2022-08-03T16:42:35.006Z,33.55
2022-08-03T16:45:02.397Z,33.68
2022-08-03T16:47:31.730Z,33.70
2022-08-03T16:50:00.451Z,33.82
2022-08-03T16:52:27.585Z,33.21
2022-08-03T16:54:54.975Z,33.14
2022-08-03T16:57:55.831Z,32.96
2022-08-03T17:00:11.789Z,33.28
2022-08-03T17:02:48.156Z,32.37
2022-08-03T17:05:15.468Z,32.74
2022-08-03T17:07:50.545Z,32.05
2022-08-03T17:10:22.017Z,32.24
2022-08-03T17:12:54.481Z,32.24
2022-08-03T17:15:38.448Z,32.36
2022-08-03T17:18:15.265Z,32.62
2022-08-03T17:20:46.754Z,32.05
2022-08-03T17:23:35.295Z,32.19
2022-08-03T17:26:08.949Z,31.10
2022-08-03T17:28:51.563Z,31.51
2022-08-03T17:31:31.344Z,31.22
2022-08-03T17:34:01.407Z,31.00
2022-08-03T17:36:47.619Z,31.07
2022-08-03T17:39:23.545Z,31.01
2022-08-03T17:42:00.907Z,31.40
2022-08-03T17:44:41.485Z,32.12
2022-08-03T17:47:13.120Z,32.45
2022-08-03T17:49:46.550Z,32.40
2022-08-03T17:52:35.471Z,32.83
2022-08-03T17:55:55.169Z,32.58
2022-08-03T17:58:11.685Z,32.44
2022-08-03T18:01:03.800Z,31.95
2022-08-03T18:03:59.249Z,32.13
2022-08-03T18:06:31.276Z,31.56
2022-08-03T18:08:59.983Z,30.64
2022-08-03T18:11:35.722Z,30.40
2022-08-03T18:14:17.258Z,30.10
2022-08-03T18:16:47.946Z,29.73
2022-08-03T18:19:14.960Z,29.60
2022-08-03T18:22:03.614Z,29.44
2022-08-03T18:24:30.658Z,29.36
2022-08-03T18:26:59.812Z,29.04
2022-08-03T18:29:35.493Z,28.57
2022-08-03T18:32:12.956Z,28.12
2022-08-03T18:34:53.652Z,27.88
2022-08-03T18:37:25.495Z,27.61
2022-08-03T18:39:57.876Z,27.52
2022-08-03T18:42:26.813Z,27.40
2022-08-03T18:44:56.288Z,27.27
2022-08-03T18:47:52.171Z,27.18
2022-08-03T18:50:34.170Z,26.70
2022-08-03T18:53:19.674Z,26.47
2022-08-03T18:56:02.391Z,26.32
2022-08-03T18:58:48.656Z,26.19
2022-08-03T19:02:00.108Z,26.18
2022-08-03T19:04:20.267Z,26.04
2022-08-03T19:06:58.923Z,25.80
2022-08-03T19:09:46.853Z,25.74
2022-08-03T19:12:30.726Z,25.90
2022-08-03T19:15:03.701Z,26.19
2022-08-03T19:17:38.574Z,26.36
2022-08-03T19:20:08.970Z,26.20
2022-08-03T19:22:39.855Z,26.01
2022-08-03T19:25:12.914Z,26.32
2022-08-03T19:27:43.490Z,26.23
2022-08-03T19:33:02.291Z,25.73
2022-08-03T19:35:46.973Z,25.54
2022-08-03T19:38:28.622Z,25.10
2022-08-03T19:41:00.947Z,24.85
2022-08-03T19:43:52.626Z,24.74
2022-08-03T19:46:30.084Z,24.37
2022-08-03T19:49:10.293Z,24.29
2022-08-03T19:52:00.863Z,24.36
2022-08-03T19:57:23.020Z,24.16
2022-08-03T19:59:52.490Z,24.12
2022-08-03T20:02:25.713Z,23.94
2022-08-03T20:04:59.582Z,23.92
2022-08-03T20:07:29.086Z,23.86
2022-08-03T20:09:59.631Z,23.81
2022-08-03T20:12:34.302Z,23.90
2022-08-03T20:15:06.563Z,23.79
2022-08-03T20:17:55.923Z,23.81
2022-08-03T20:20:23.496Z,23.72
2022-08-03T20:22:57.759Z,23.71
2022-08-03T20:25:38.869Z,23.65
2022-08-03T20:28:26.773Z,24.33
2022-08-03T20:30:54.113Z,24.32
2022-08-03T20:33:27.792Z,24.36
2022-08-03T20:36:05.110Z,24.56
2022-08-03T20:38:33.088Z,24.44
2022-08-03T20:41:10.737Z,24.56
2022-08-03T20:43:37.659Z,24.52
2022-08-03T20:46:31.781Z,24.39
2022-08-03T20:48:51.812Z,24.40
2022-08-03T20:51:20.079Z,24.27
2022-08-03T20:54:01.780Z,24.17
2022-08-03T20:56:35.920Z,24.39
2022-08-03T20:59:07.168Z,24.43
2022-08-03T21:01:41.922Z,24.50
2022-08-03T21:04:11.333Z,24.64
2022-08-03T21:06:54.192Z,24.68
2022-08-03T21:09:39.792Z,24.65
2022-08-03T21:12:23.936Z,24.55
2022-08-03T21:13:02.301Z,25.76
2022-08-03T21:13:10.762Z,24.25
2022-08-03T21:15:03.113Z,24.60
2022-08-03T21:17:41.612Z,24.69
2022-08-03T21:20:11.442Z,24.48
2022-08-03T21:22:42.502Z,24.32
2022-08-03T21:25:10.415Z,23.91
2022-08-03T21:27:37.750Z,24.10
2022-08-03T21:30:09.320Z,24.08
2022-08-03T21:32:40.160Z,24.06
2022-08-03T21:35:09.915Z,24.05
2022-08-03T21:37:38.009Z,24.08
2022-08-03T21:40:05.421Z,23.92
2022-08-03T21:42:32.293Z,23.96
2022-08-03T21:44:59.146Z,23.87
2022-08-03T21:47:26.538Z,23.98
2022-08-03T21:50:06.319Z,24.42
2022-08-03T21:52:41.925Z,24.29
2022-08-03T21:55:18.307Z,24.27
2022-08-03T21:57:53.550Z,24.05
2022-08-03T22:00:23.080Z,23.82
2022-08-03T22:02:56.074Z,24.06
2022-08-03T22:05:42.393Z,23.82
2022-08-03T22:08:13.670Z,24.00
2022-08-03T22:10:43.497Z,24.17
2022-08-03T22:13:15.010Z,24.18
2022-08-03T22:15:42.041Z,24.12
2022-08-03T22:18:09.050Z,24.17
2022-08-03T22:20:36.283Z,23.98
2022-08-03T22:23:05.717Z,23.38
2022-08-03T22:25:35.954Z,23.48
2022-08-03T22:28:10.837Z,23.97
2022-08-03T22:30:38.552Z,24.18
2022-08-03T22:33:11.239Z,24.04
2022-08-03T22:35:49.027Z,24.19
2022-08-03T22:38:17.635Z,24.16
2022-08-03T22:40:46.988Z,23.90
2022-08-03T22:43:14.093Z,24.09
2022-08-03T22:46:09.130Z,24.08
2022-08-03T22:48:34.396Z,24.05
2022-08-03T22:51:03.492Z,23.95
2022-08-03T22:53:30.721Z,24.02
2022-08-03T22:55:57.903Z,24.01
2022-08-03T22:58:25.237Z,24.00
2022-08-03T23:00:55.592Z,24.20
2022-08-03T23:03:58.843Z,24.14
2022-08-03T23:06:21.626Z,24.22
2022-08-03T23:08:50.382Z,23.91
2022-08-03T23:11:18.808Z,24.13
2022-08-03T23:13:52.231Z,24.20
2022-08-03T23:16:29.046Z,24.30
2022-08-03T23:18:58.876Z,24.34
2022-08-03T23:21:53.971Z,23.90
2022-08-03T23:24:29.122Z,24.27
2022-08-03T23:26:57.697Z,24.09
2022-08-03T23:29:26.188Z,24.06
2022-08-03T23:31:53.949Z,24.28
2022-08-03T23:34:40.428Z,24.02
2022-08-03T23:37:07.741Z,24.20
2022-08-03T23:39:38.848Z,24.17
2022-08-03T23:42:06.202Z,24.05
2022-08-03T23:44:36.796Z,24.28
2022-08-03T23:47:03.971Z,24.25
2022-08-03T23:49:31.163Z,24.13
2022-08-03T23:52:09.258Z,24.22
2022-08-03T23:55:07.132Z,24.16
2022-08-03T23:57:51.509Z,24.20
